Time;durP1;ratioP1;P1;durP2;ratioP2;P2;SDS_P1;SDS_P2;PMS_P1;PMS_P2;Temp;Humidity;BMP_temperature;BMP_pressure;BME280_temperature;BME280_humidity;BME280_pressure;Samples;Min_cycle;Max_cycle;Signal;HPM_P1;HPM_P2
2023/02/02 00:01:22;;;;;;;11.30;3.33;;;4.40;1.00;;;;;;5009751;28;20184;-77
2023/02/02 00:03:49;;;;;;;10.33;2.50;;;4.30;1.00;;;;;;5007074;28;20215;-76
2023/02/02 00:06:18;;;;;;;12.73;2.77;;;3.70;1.00;;;;;;5006502;28;20649;-76
2023/02/02 00:08:45;;;;;;;17.57;2.50;;;4.40;1.00;;;;;;5009268;28;20211;-77
2023/02/02 00:11:11;;;;;;;10.07;2.17;;;4.40;1.00;;;;;;5008482;28;20257;-77
2023/02/02 00:13:37;;;;;;;15.57;2.77;;;4.30;1.00;;;;;;5009729;28;20188;-77
2023/02/02 00:16:27;;;;;;;11.20;2.03;;;4.30;1.00;;;;;;5010259;28;20184;-76
2023/02/02 00:18:55;;;;;;;11.43;3.23;;;4.30;99.90;;;;;;5009554;28;20768;-76
2023/02/02 00:21:21;;;;;;;13.47;3.23;;;4.20;1.00;;;;;;5010601;28;20935;-75
2023/02/02 00:23:46;;;;;;;12.83;2.37;;;4.20;1.00;;;;;;5009151;28;20203;-77
2023/02/02 00:26:12;;;;;;;12.53;2.83;;;4.40;1.00;;;;;;5009569;28;20608;-77
2023/02/02 00:28:38;;;;;;;10.57;2.20;;;4.20;1.00;;;;;;5009379;28;20230;-76
2023/02/02 00:31:03;;;;;;;14.40;2.60;;;4.20;1.00;;;;;;5008830;28;20202;-77
2023/02/02 00:33:29;;;;;;;12.63;2.90;;;4.20;1.00;;;;;;5009289;28;20196;-77
2023/02/02 00:35:54;;;;;;;14.23;2.80;;;4.30;1.00;;;;;;5008235;28;20254;-76
2023/02/02 00:38:20;;;;;;;11.20;2.40;;;4.30;1.00;;;;;;5009516;28;20195;-75
2023/02/02 00:40:46;;;;;;;13.20;2.90;;;4.20;1.00;;;;;;5009862;28;20239;-77
2023/02/02 00:43:11;;;;;;;14.97;3.07;;;4.30;1.00;;;;;;5008585;28;20188;-77
2023/02/02 00:45:37;;;;;;;15.27;2.80;;;4.40;1.00;;;;;;5008241;28;20172;-77
2023/02/02 00:48:03;;;;;;;10.53;2.90;;;4.50;1.00;;;;;;5007402;28;20179;-77
2023/02/02 00:50:29;;;;;;;13.90;2.27;;;4.40;1.00;;;;;;5007709;28;20191;-75
2023/02/02 00:52:56;;;;;;;14.40;2.33;;;4.50;1.00;;;;;;5009045;28;20818;-75
2023/02/02 00:55:22;;;;;;;12.33;2.80;;;4.50;1.00;;;;;;5006792;28;20215;-75
2023/02/02 00:57:48;;;;;;;11.33;2.00;;;4.50;1.00;;;;;;5008023;28;20176;-76
2023/02/02 01:00:15;;;;;;;13.43;2.40;;;4.40;1.00;;;;;;5010483;28;20208;-77
2023/02/02 01:02:42;;;;;;;10.70;2.53;;;4.40;1.00;;;;;;5012754;28;20179;-76
2023/02/02 01:05:08;;;;;;;11.50;2.90;;;4.30;1.00;;;;;;5011722;28;20267;-77
2023/02/02 01:07:34;;;;;;;8.73;2.00;;;4.30;1.00;;;;;;5011790;28;20184;-76
2023/02/02 01:09:59;;;;;;;10.57;2.57;;;4.30;1.00;;;;;;5011897;28;20219;-77
2023/02/02 01:12:25;;;;;;;14.60;2.70;;;3.70;1.00;;;;;;5011161;28;20624;-77
2023/02/02 01:14:50;;;;;;;10.00;2.07;;;4.30;1.00;;;;;;5011337;28;20188;-76
2023/02/02 01:17:16;;;;;;;13.80;2.43;;;4.20;3.60;;;;;;5011041;28;20188;-76
2023/02/02 01:19:42;;;;;;;14.03;3.07;;;4.10;8.40;;;;;;5010622;28;20219;-77
2023/02/02 01:22:08;;;;;;;13.20;3.03;;;4.10;6.20;;;;;;5010560;28;20176;-76
2023/02/02 01:24:33;;;;;;;11.60;2.33;;;4.10;8.20;;;;;;5010429;28;20254;-77
2023/02/02 01:26:59;;;;;;;9.07;2.00;;;4.10;8.10;;;;;;5009405;28;20199;-77
2023/02/02 01:29:25;;;;;;;13.43;2.70;;;4.10;9.60;;;;;;5008778;28;20415;-76
2023/02/02 01:31:50;;;;;;;12.27;2.33;;;4.10;12.10;;;;;;5008976;28;20430;-76
2023/02/02 01:34:16;;;;;;;9.20;2.30;;;4.00;11.10;;;;;;5009380;28;20203;-76
2023/02/02 01:36:41;;;;;;;10.47;1.90;;;4.20;7.80;;;;;;5007720;28;20187;-77
2023/02/02 01:39:07;;;;;;;13.07;3.07;;;4.10;12.60;;;;;;5008962;28;20696;-75
2023/02/02 01:41:33;;;;;;;14.67;2.30;;;4.20;6.90;;;;;;5009340;28;20184;-77
2023/02/02 01:44:04;;;;;;;11.37;2.23;;;4.20;11.80;;;;;;5009965;28;20175;-77
2023/02/02 01:46:34;;;;;;;7.10;2.17;;;5.10;14.20;;;;;;5009192;28;20188;-76
2023/02/02 01:49:14;;;;;;;12.17;2.87;;;4.30;11.50;;;;;;5007364;28;20195;-76
2023/02/02 01:51:49;;;;;;;11.83;2.20;;;4.30;11.10;;;;;;5008700;28;20186;-76
2023/02/02 01:54:20;;;;;;;11.63;2.30;;;4.30;14.60;;;;;;5011649;28;20180;-77
2023/02/02 01:56:57;;;;;;;14.10;2.73;;;4.20;10.50;;;;;;5010916;28;20266;-76
2023/02/02 01:59:24;;;;;;;11.53;2.27;;;4.20;8.30;;;;;;5011197;28;20231;-77
2023/02/02 02:01:51;;;;;;;14.13;2.60;;;4.20;7.30;;;;;;5011587;28;20180;-76
2023/02/02 02:04:17;;;;;;;11.67;2.87;;;4.20;10.70;;;;;;5009479;28;20891;-76
2023/02/02 02:06:44;;;;;;;8.83;1.53;;;4.10;10.20;;;;;;5012048;28;20199;-76
2023/02/02 02:09:10;;;;;;;24.33;3.63;;;5.30;15.70;;;;;;5010793;28;20199;-77
2023/02/02 02:11:35;;;;;;;12.80;2.47;;;4.10;13.00;;;;;;5010423;28;20203;-77
2023/02/02 02:17:36;;;;;;;14.63;2.57;;;4.10;8.40;;;;;;5010576;28;20995;-77
2023/02/02 02:26:33;;;;;;;12.17;2.60;;;4.10;1.00;;;;;;5010770;28;20957;-77
2023/02/02 02:29:16;;;;;;;10.83;2.57;;;4.10;1.80;;;;;;5010376;28;20257;-77
2023/02/02 02:32:14;;;;;;;8.40;2.17;;;4.20;4.70;;;;;;5011205;28;20237;-77
2023/02/02 02:34:59;;;;;;;13.87;3.40;;;4.10;5.20;;;;;;5010904;28;20180;-77
2023/02/02 02:37:27;;;;;;;11.77;2.17;;;4.10;6.10;;;;;;5010516;28;20217;-77
2023/02/02 02:39:52;;;;;;;14.53;2.23;;;4.20;1.40;;;;;;5010163;28;20233;-76
2023/02/02 02:42:24;;;;;;;10.73;2.23;;;4.20;1.30;;;;;;5008926;28;20195;-76
2023/02/02 02:44:51;;;;;;;15.57;3.30;;;4.30;1.00;;;;;;5009982;28;20315;-77
2023/02/02 02:47:19;;;;;;;16.58;3.90;;;4.20;5.60;;;;;;5008125;28;20419;-77
2023/02/02 02:49:46;;;;;;;12.60;2.70;;;4.20;1.00;;;;;;5010013;28;20661;-76
2023/02/02 02:52:12;;;;;;;13.43;2.53;;;4.20;14.60;;;;;;5010483;28;20739;-75
2023/02/02 02:54:46;;;;;;;10.90;2.20;;;4.10;5.50;;;;;;5009791;28;20188;-76
2023/02/02 02:57:26;;;;;;;10.90;2.53;;;4.10;2.70;;;;;;5009691;28;20665;-77
2023/02/02 03:00:13;;;;;;;13.63;2.83;;;4.10;5.00;;;;;;5009817;28;20250;-77
2023/02/02 03:02:56;;;;;;;15.30;2.30;;;4.00;6.30;;;;;;5010275;28;20182;-76
2023/02/02 03:05:51;;;;;;;12.07;3.27;;;4.00;10.50;;;;;;5024378;28;20270;-76
2023/02/02 03:08:35;;;;;;;13.50;1.90;;;4.00;14.60;;;;;;5007269;28;20635;-76
2023/02/02 03:11:03;;;;;;;8.67;1.90;;;4.00;21.50;;;;;;5023722;28;20198;-77
2023/02/02 03:13:30;;;;;;;18.73;3.23;;;4.00;21.20;;;;;;5008496;28;20601;-75
2023/02/02 03:15:55;;;;;;;14.57;2.33;;;4.00;20.40;;;;;;5009471;28;20172;-77
2023/02/02 03:18:23;;;;;;;15.33;2.30;;;3.90;22.70;;;;;;5008882;28;20194;-77
2023/02/02 03:20:49;;;;;;;12.23;2.30;;;3.90;24.60;;;;;;5008098;28;20199;-77
2023/02/02 03:23:14;;;;;;;12.37;2.17;;;3.90;28.30;;;;;;5009521;28;20634;-76
2023/02/02 03:25:40;;;;;;;12.73;1.87;;;3.90;24.10;;;;;;5008977;28;20709;-77
2023/02/02 03:28:06;;;;;;;8.90;2.50;;;3.90;26.30;;;;;;5008273;28;20187;-77
2023/02/02 03:30:32;;;;;;;11.43;2.30;;;3.90;24.80;;;;;;5008361;28;20195;-76
2023/02/02 03:32:58;;;;;;;13.80;2.67;;;4.00;20.60;;;;;;5009235;28;20183;-76
2023/02/02 03:35:25;;;;;;;11.70;2.10;;;4.00;17.40;;;;;;5008243;28;20198;-77
2023/02/02 03:37:51;;;;;;;8.87;1.87;;;4.00;20.50;;;;;;5006951;28;20206;-76
2023/02/02 03:40:16;;;;;;;8.60;2.03;;;3.90;21.80;;;;;;5008845;28;20235;-77
2023/02/02 03:42:42;;;;;;;15.90;2.63;;;3.90;19.60;;;;;;5007829;28;20274;-76
2023/02/02 03:45:08;;;;;;;11.37;2.90;;;3.90;25.50;;;;;;5007715;28;20214;-76
2023/02/02 03:47:34;;;;;;;9.60;2.10;;;3.90;18.10;;;;;;5008145;28;20214;-77
2023/02/02 03:49:59;;;;;;;13.93;3.30;;;3.90;24.40;;;;;;5007675;28;20415;-77
2023/02/02 03:52:25;;;;;;;11.37;2.40;;;3.90;22.90;;;;;;5008235;28;20203;-77
2023/02/02 03:54:51;;;;;;;12.87;2.40;;;3.80;28.40;;;;;;5007910;28;20243;-77
2023/02/02 03:57:16;;;;;;;22.03;3.00;;;3.90;26.10;;;;;;5007526;28;20187;-76
2023/02/02 03:59:42;;;;;;;12.53;2.13;;;3.90;23.80;;;;;;5007940;28;20571;-75
2023/02/02 04:02:07;;;;;;;11.43;2.17;;;4.00;22.70;;;;;;5007761;28;20180;-77
2023/02/02 04:04:33;;;;;;;12.87;2.17;;;4.00;23.30;;;;;;5007312;28;20176;-77
2023/02/02 04:07:00;;;;;;;11.73;2.37;;;4.00;21.50;;;;;;5008307;28;20190;-76
2023/02/02 04:09:26;;;;;;;15.87;3.63;;;3.90;25.20;;;;;;5007361;28;20203;-76
2023/02/02 04:11:52;;;;;;;14.60;2.77;;;3.90;28.20;;;;;;5007322;28;20192;-76
2023/02/02 04:14:18;;;;;;;10.83;2.07;;;3.90;27.70;;;;;;5007425;28;20199;-77
2023/02/02 04:16:43;;;;;;;12.43;2.27;;;3.90;33.00;;;;;;5007425;28;20183;-77
2023/02/02 04:19:11;;;;;;;10.30;1.90;;;3.90;27.80;;;;;;5007715;28;20282;-77
2023/02/02 04:21:37;;;;;;;10.67;2.27;;;3.80;38.70;;;;;;5007956;28;20653;-75
2023/02/02 04:24:03;;;;;;;11.53;2.40;;;3.80;39.90;;;;;;5007793;28;20186;-77
2023/02/02 04:26:29;;;;;;;11.50;2.47;;;3.80;34.70;;;;;;5006641;28;20677;-76
2023/02/02 04:28:54;;;;;;;9.40;1.87;;;3.80;41.80;;;;;;5007656;28;20192;-77
2023/02/02 04:31:20;;;;;;;8.83;2.40;;;3.80;43.30;;;;;;5007056;28;20207;-77
2023/02/02 04:33:45;;;;;;;12.90;2.20;;;3.80;43.00;;;;;;5007748;28;20186;-76
2023/02/02 04:36:12;;;;;;;13.40;2.27;;;3.80;45.60;;;;;;5011162;28;20237;-76
2023/02/02 04:38:38;;;;;;;13.33;2.40;;;3.80;42.70;;;;;;5011315;28;20213;-76
2023/02/02 04:41:08;;;;;;;14.23;2.30;;;3.80;42.10;;;;;;5011109;28;20297;-76
2023/02/02 04:43:37;;;;;;;13.07;1.97;;;3.80;40.80;;;;;;5010721;28;20180;-76
2023/02/02 04:46:03;;;;;;;15.30;3.10;;;3.80;99.90;;;;;;5007546;28;20927;-77
2023/02/02 04:48:29;;;;;;;10.50;2.60;;;3.90;43.70;;;;;;5011215;28;20203;-75
2023/02/02 04:51:04;;;;;;;14.30;2.60;;;3.90;43.80;;;;;;5010477;28;20192;-77
2023/02/02 04:53:30;;;;;;;12.10;2.07;;;4.00;43.30;;;;;;5009950;28;20611;-77
2023/02/02 04:55:55;;;;;;;14.03;3.07;;;4.00;60.20;;;;;;5010611;28;20179;-77
2023/02/02 04:58:21;;;;;;;13.93;2.13;;;3.90;47.90;;;;;;5010335;28;20200;-76
2023/02/02 05:00:47;;;;;;;14.63;2.33;;;3.90;54.10;;;;;;5025930;28;20218;-76
2023/02/02 05:03:12;;;;;;;11.00;2.30;;;3.90;54.50;;;;;;5009092;28;20191;-76
2023/02/02 05:05:38;;;;;;;16.10;2.77;;;3.80;66.40;;;;;;5008676;28;20708;-77
2023/02/02 05:08:03;;;;;;;14.03;3.00;;;3.70;78.80;;;;;;5011982;28;20176;-77
2023/02/02 05:10:29;;;;;;;20.93;3.17;;;3.70;86.50;;;;;;5010441;28;20215;-77
2023/02/02 05:12:55;;;;;;;14.40;2.23;;;3.80;90.50;;;;;;5012971;28;20199;-76
2023/02/02 05:15:21;;;;;;;11.00;2.47;;;3.80;91.00;;;;;;5011266;28;20555;-75
2023/02/02 05:17:49;;;;;;;12.03;2.20;;;3.70;95.50;;;;;;5012180;28;20190;-75
2023/02/02 05:20:15;;;;;;;11.33;3.57;;;3.80;97.40;;;;;;5010653;28;20250;-76
2023/02/02 05:22:41;;;;;;;13.53;2.83;;;3.90;96.80;;;;;;5026889;28;20231;-77
2023/02/02 05:25:08;;;;;;;11.73;2.23;;;3.90;96.40;;;;;;5011666;28;20369;-77
2023/02/02 05:27:33;;;;;;;13.97;2.30;;;3.90;94.60;;;;;;5009230;28;20641;-76
2023/02/02 05:29:59;;;;;;;11.03;2.30;;;3.90;97.70;;;;;;5010813;28;20265;-77
2023/02/02 05:32:25;;;;;;;14.03;2.27;;;3.80;99.90;;;;;;5011654;28;20191;-77
2023/02/02 05:34:50;;;;;;;15.07;2.17;;;3.80;99.90;;;;;;5012210;28;20179;-77
2023/02/02 05:37:16;;;;;;;13.17;3.23;;;3.70;99.90;;;;;;5011143;28;20195;-77
2023/02/02 05:39:42;;;;;;;16.70;2.80;;;3.70;99.90;;;;;;5011747;28;20210;-77
2023/02/02 05:42:07;;;;;;;14.37;2.80;;;3.60;99.90;;;;;;5010742;28;20255;-77
2023/02/02 05:44:33;;;;;;;15.60;2.50;;;3.50;99.90;;;;;;5011257;28;20265;-77
2023/02/02 05:46:58;;;;;;;11.73;2.23;;;3.60;99.90;;;;;;5011313;28;20207;-76
2023/02/02 05:49:24;;;;;;;15.60;2.77;;;3.60;99.90;;;;;;5010937;28;20207;-76
2023/02/02 05:51:55;;;;;;;15.37;2.77;;;3.70;99.90;;;;;;5011634;28;20240;-76
2023/02/02 05:54:22;;;;;;;8.80;2.60;;;3.70;99.90;;;;;;5011591;28;20331;-77
2023/02/02 05:56:49;;;;;;;11.63;2.40;;;3.60;99.90;;;;;;5011069;28;20187;-77
2023/02/02 05:59:16;;;;;;;16.63;3.40;;;3.60;99.90;;;;;;5010041;28;20526;-77
2023/02/02 06:01:43;;;;;;;15.95;3.22;;;3.60;99.90;;;;;;5007670;28;20464;-77
2023/02/02 06:04:08;;;;;;;13.80;2.77;;;3.50;99.90;;;;;;5010082;28;20273;-77
2023/02/02 06:06:34;;;;;;;15.83;2.47;;;3.60;99.90;;;;;;5008175;28;20253;-76
2023/02/02 06:09:01;;;;;;;21.03;2.90;;;3.60;99.90;;;;;;5009254;28;20195;-77
2023/02/02 06:11:26;;;;;;;15.13;3.13;;;3.60;99.90;;;;;;5010701;28;20286;-76
2023/02/02 06:13:52;;;;;;;13.43;2.50;;;3.50;99.90;;;;;;5010418;28;20270;-77
2023/02/02 06:16:17;;;;;;;17.03;3.50;;;3.60;99.90;;;;;;5010353;28;20192;-77
2023/02/02 06:18:44;;;;;;;17.93;2.73;;;3.60;99.90;;;;;;5010719;28;20719;-76
2023/02/02 06:21:10;;;;;;;16.73;2.73;;;3.60;99.90;;;;;;5009568;28;20218;-77
2023/02/02 06:23:36;;;;;;;17.37;3.17;;;3.70;99.90;;;;;;5009868;28;20207;-77
2023/02/02 06:26:03;;;;;;;14.13;2.63;;;3.70;99.90;;;;;;5010359;28;20226;-77
2023/02/02 06:28:31;;;;;;;14.13;3.03;;;3.80;99.90;;;;;;5008683;28;20204;-77
2023/02/02 06:31:03;;;;;;;17.93;3.13;;;3.70;99.90;;;;;;5007097;28;20190;-77
2023/02/02 06:33:29;;;;;;;12.80;2.77;;;3.70;99.90;;;;;;5007510;28;20225;-76
2023/02/02 06:35:59;;;;;;;11.07;2.60;;;3.70;99.90;;;;;;5009305;28;20211;-77
2023/02/02 06:38:25;;;;;;;10.00;2.20;;;3.70;99.90;;;;;;5007922;28;20203;-77
2023/02/02 06:40:51;;;;;;;14.37;3.20;;;3.60;99.90;;;;;;5008282;28;20273;-77
2023/02/02 06:43:16;;;;;;;16.73;3.13;;;3.60;99.90;;;;;;5009060;28;20188;-75
2023/02/02 06:45:42;;;;;;;14.53;2.50;;;3.50;99.90;;;;;;5007815;28;20199;-76
2023/02/02 06:48:09;;;;;;;15.67;2.77;;;3.50;99.90;;;;;;5009380;28;20184;-77
2023/02/02 06:50:37;;;;;;;14.33;2.40;;;3.50;99.90;;;;;;5009270;28;20191;-77
2023/02/02 06:53:03;;;;;;;16.80;2.97;;;3.50;99.90;;;;;;5009291;28;20612;-77
2023/02/02 06:55:28;;;;;;;13.43;2.90;;;3.50;99.90;;;;;;5008287;28;20689;-76
2023/02/02 06:57:58;;;;;;;17.47;2.67;;;3.50;99.90;;;;;;5007343;28;20190;-77
2023/02/02 07:00:26;;;;;;;20.80;3.50;;;3.50;99.90;;;;;;5007729;28;20212;-77
2023/02/02 07:02:51;;;;;;;9.53;2.20;;;3.50;99.90;;;;;;5006158;28;20187;-77
2023/02/02 07:05:22;;;;;;;12.93;2.70;;;3.50;99.90;;;;;;5006354;28;20184;-76
2023/02/02 07:07:49;;;;;;;13.53;3.20;;;3.50;99.90;;;;;;5006515;28;20637;-76
2023/02/02 07:10:15;;;;;;;11.63;2.90;;;3.40;99.90;;;;;;5006318;28;20234;-77
2023/02/02 07:12:41;;;;;;;21.97;3.43;;;3.50;99.90;;;;;;5006714;28;20220;-75
2023/02/02 07:15:07;;;;;;;14.97;2.80;;;3.50;99.90;;;;;;5007063;28;20218;-77
2023/02/02 07:17:33;;;;;;;15.37;2.93;;;3.50;99.90;;;;;;5006359;28;20188;-76
2023/02/02 07:19:58;;;;;;;18.77;3.17;;;3.60;99.90;;;;;;5005719;28;20291;-77
2023/02/02 07:22:24;;;;;;;14.00;2.73;;;3.60;99.90;;;;;;5020199;28;20183;-77
2023/02/02 07:24:50;;;;;;;18.07;3.33;;;3.70;99.90;;;;;;5006724;28;20183;-76
2023/02/02 07:27:15;;;;;;;19.93;3.17;;;3.70;99.90;;;;;;5006626;28;20184;-76
2023/02/02 07:29:41;;;;;;;11.03;2.67;;;3.80;99.90;;;;;;5006925;28;20203;-77
2023/02/02 07:32:06;;;;;;;18.00;2.37;;;3.80;99.90;;;;;;5005347;28;20187;-76
2023/02/02 07:34:32;;;;;;;14.90;2.90;;;3.80;99.90;;;;;;5005539;28;20176;-76
2023/02/02 07:36:57;;;;;;;18.23;3.00;;;3.80;99.90;;;;;;5006495;28;20176;-77
2023/02/02 07:39:23;;;;;;;13.67;2.87;;;3.80;99.90;;;;;;5006091;28;20294;-76
2023/02/02 07:41:48;;;;;;;11.67;3.27;;;3.90;99.90;;;;;;5006164;28;20176;-76
2023/02/02 07:44:15;;;;;;;15.60;3.10;;;3.90;99.90;;;;;;5007245;28;20192;-77
2023/02/02 07:46:45;;;;;;;13.87;2.70;;;3.90;99.90;;;;;;5006653;28;20180;-77
2023/02/02 07:49:13;;;;;;;12.93;2.40;;;4.00;99.90;;;;;;5005084;28;20200;-76
2023/02/02 07:51:40;;;;;;;12.13;2.30;;;4.00;99.90;;;;;;5006122;28;20207;-77
2023/02/02 07:54:06;;;;;;;15.33;3.13;;;4.10;99.90;;;;;;5005245;28;20187;-77
2023/02/02 07:56:31;;;;;;;13.93;2.87;;;4.10;99.90;;;;;;5005788;28;20183;-76
2023/02/02 07:58:57;;;;;;;14.63;3.27;;;4.10;99.90;;;;;;5005787;28;20708;-77
2023/02/02 08:01:24;;;;;;;13.90;3.43;;;4.20;99.90;;;;;;5005922;28;20614;-76
2023/02/02 08:03:52;;;;;;;13.70;2.93;;;4.30;99.90;;;;;;5006162;28;20184;-76
2023/02/02 08:06:30;;;;;;;12.43;2.87;;;5.90;99.90;;;;;;5005862;28;20598;-76
2023/02/02 08:08:57;;;;;;;16.20;2.90;;;4.30;99.90;;;;;;5003260;28;20759;-75
2023/02/02 08:11:25;;;;;;;12.53;3.30;;;4.40;99.90;;;;;;5006152;28;20258;-77
2023/02/02 08:13:52;;;;;;;18.80;3.20;;;4.30;99.90;;;;;;5005130;28;20184;-77
2023/02/02 08:16:19;;;;;;;14.20;3.43;;;4.30;99.90;;;;;;5005005;28;20195;-76
2023/02/02 08:18:45;;;;;;;14.57;3.50;;;4.40;99.90;;;;;;5003796;28;20235;-76
2023/02/02 08:21:11;;;;;;;13.30;2.80;;;4.20;99.90;;;;;;5006326;28;20701;-77
2023/02/02 08:23:39;;;;;;;15.73;3.43;;;4.50;99.90;;;;;;5007860;28;20210;-75
2023/02/02 08:26:11;;;;;;;8.87;2.33;;;4.50;99.90;;;;;;5005613;28;20183;-77
2023/02/02 08:28:38;;;;;;;14.03;3.80;;;4.50;99.90;;;;;;5005758;28;20203;-76
2023/02/02 08:31:06;;;;;;;13.13;2.73;;;4.50;99.90;;;;;;5008520;28;20183;-77
2023/02/02 08:33:32;;;;;;;12.30;2.77;;;4.60;99.90;;;;;;5002428;28;20649;-76
2023/02/02 08:35:58;;;;;;;17.67;3.33;;;4.50;99.90;;;;;;5004701;28;20218;-77
2023/02/02 08:38:23;;;;;;;20.27;3.40;;;4.60;99.90;;;;;;5002975;28;20614;-77
2023/02/02 08:40:49;;;;;;;16.07;3.53;;;4.60;99.90;;;;;;5003026;28;20206;-75
2023/02/02 08:43:16;;;;;;;11.87;3.23;;;4.70;99.90;;;;;;5002476;28;20196;-75
2023/02/02 08:45:42;;;;;;;15.83;3.87;;;4.60;99.90;;;;;;5003217;28;20199;-75
2023/02/02 08:48:08;;;;;;;16.67;3.40;;;4.70;99.90;;;;;;5003139;28;20598;-75
2023/02/02 08:50:33;;;;;;;15.30;3.60;;;4.80;99.90;;;;;;4998989;28;20237;-75
2023/02/02 08:52:59;;;;;;;13.47;2.97;;;4.70;99.90;;;;;;5002428;28;20565;-75
2023/02/02 08:55:25;;;;;;;17.17;2.80;;;4.80;99.90;;;;;;5002283;28;20303;-75
2023/02/02 08:57:50;;;;;;;19.23;2.90;;;4.80;99.90;;;;;;5001419;28;20199;-75
2023/02/02 09:00:16;;;;;;;15.43;3.17;;;4.80;99.90;;;;;;5001528;28;20219;-75
2023/02/02 09:02:42;;;;;;;16.80;2.67;;;5.60;99.90;;;;;;5002152;28;20194;-75
2023/02/02 09:05:07;;;;;;;12.03;2.57;;;4.90;99.90;;;;;;5000972;28;20187;-75
2023/02/02 09:07:33;;;;;;;21.80;4.60;;;4.90;99.90;;;;;;4999963;28;20180;-75
2023/02/02 09:09:59;;;;;;;11.90;3.80;;;4.90;99.90;;;;;;5000959;28;20273;-75
2023/02/02 09:12:25;;;;;;;12.17;3.20;;;4.90;99.90;;;;;;5001109;28;20222;-75
2023/02/02 09:14:51;;;;;;;12.10;3.10;;;4.90;99.90;;;;;;5000944;28;20187;-75
2023/02/02 09:17:17;;;;;;;11.77;3.50;;;5.00;99.90;;;;;;5000929;28;20192;-75
2023/02/02 09:19:42;;;;;;;14.83;3.63;;;5.00;99.90;;;;;;5002099;28;20481;-75
2023/02/02 09:22:08;;;;;;;12.90;3.70;;;5.00;99.90;;;;;;5005019;28;20205;-75
2023/02/02 09:24:33;;;;;;;14.70;3.00;;;5.10;99.90;;;;;;5005237;28;20187;-75
2023/02/02 09:26:59;;;;;;;14.70;3.40;;;5.20;99.90;;;;;;5006047;28;20191;-75
2023/02/02 09:29:25;;;;;;;20.80;3.83;;;5.20;99.90;;;;;;5004285;28;20332;-75
2023/02/02 09:31:51;;;;;;;23.60;4.33;;;5.20;99.90;;;;;;5005027;28;20282;-75
2023/02/02 09:34:16;;;;;;;13.47;3.17;;;5.20;99.90;;;;;;5004062;28;20767;-75
2023/02/02 09:36:43;;;;;;;18.43;3.67;;;5.20;99.90;;;;;;5005077;28;20180;-75
2023/02/02 09:39:11;;;;;;;15.10;3.60;;;5.20;99.90;;;;;;5002508;28;20211;-75
2023/02/02 09:41:37;;;;;;;15.07;3.20;;;5.30;99.90;;;;;;5004931;28;20201;-75
2023/02/02 09:44:33;;;;;;;13.93;3.03;;;5.30;99.90;;;;;;5003730;28;20179;-75
2023/02/02 09:47:23;;;;;;;13.73;3.10;;;5.30;99.90;;;;;;5005240;28;20258;-75
2023/02/02 09:49:59;;;;;;;13.07;3.07;;;5.30;99.90;;;;;;5004590;28;20211;-75
2023/02/02 09:52:38;;;;;;;16.07;4.03;;;7.30;99.90;;;;;;5005360;28;20191;-75
2023/02/02 09:55:12;;;;;;;11.47;3.00;;;5.50;99.90;;;;;;5004703;28;20213;-75
2023/02/02 09:57:49;;;;;;;15.97;3.63;;;5.60;99.90;;;;;;5003864;28;20660;-75
2023/02/02 10:00:41;;;;;;;15.57;3.33;;;5.60;99.90;;;;;;5004905;28;20215;-75
2023/02/02 10:03:16;;;;;;;16.30;3.90;;;5.80;99.90;;;;;;5005062;28;20628;-75
2023/02/02 10:05:54;;;;;;;10.80;2.70;;;5.60;99.90;;;;;;5003955;28;20179;-75
2023/02/02 10:08:32;;;;;;;17.73;3.50;;;5.60;99.90;;;;;;5004918;28;21188;-75
2023/02/02 10:11:01;;;;;;;14.17;3.33;;;5.60;99.90;;;;;;5005444;28;20194;-75
2023/02/02 10:13:32;;;;;;;12.13;3.00;;;5.60;99.90;;;;;;5004968;28;20196;-75
2023/02/02 10:16:05;;;;;;;13.53;3.00;;;5.70;99.90;;;;;;5005588;28;20667;-75
2023/02/02 10:18:40;;;;;;;15.00;3.10;;;5.80;99.90;;;;;;5004650;28;20211;-75
2023/02/02 10:21:11;;;;;;;16.10;3.50;;;5.90;99.90;;;;;;5000087;28;20213;-74
2023/02/02 10:23:49;;;;;;;14.37;4.23;;;5.80;99.10;;;;;;5001184;28;20279;-74
2023/02/02 10:26:46;;;;;;;10.63;2.73;;;5.80;93.10;;;;;;5002266;28;20528;-75
2023/02/02 10:29:20;;;;;;;11.07;3.00;;;5.80;87.50;;;;;;4998973;28;20752;-75
2023/02/02 10:32:07;;;;;;;17.57;3.13;;;5.80;98.90;;;;;;5002803;28;20353;-75
2023/02/02 10:35:10;;;;;;;11.60;2.90;;;5.80;93.70;;;;;;4986963;28;20705;-75
2023/02/02 10:38:08;;;;;;;14.90;3.10;;;5.80;97.50;;;;;;5002757;28;20246;-74
2023/02/02 10:41:09;;;;;;;10.30;2.93;;;5.90;88.80;;;;;;5004156;28;20856;-75
2023/02/02 10:43:55;;;;;;;13.33;3.00;;;6.10;83.60;;;;;;5001869;28;20563;-75
2023/02/02 10:46:40;;;;;;;13.17;2.53;;;6.20;76.10;;;;;;5003920;28;20190;-75
2023/02/02 10:49:25;;;;;;;13.37;2.87;;;6.40;59.90;;;;;;5003796;28;20575;-75
2023/02/02 10:52:21;;;;;;;12.07;2.97;;;6.50;48.50;;;;;;5004154;28;20171;-75
2023/02/02 10:54:56;;;;;;;13.60;2.97;;;6.40;31.20;;;;;;5003683;28;20206;-75
2023/02/02 10:57:38;;;;;;;9.53;2.63;;;6.40;49.00;;;;;;5003554;28;20191;-75
2023/02/02 11:00:10;;;;;;;11.80;3.07;;;6.30;90.50;;;;;;5002835;28;20210;-75
2023/02/02 11:02:36;;;;;;;17.87;3.70;;;6.00;99.90;;;;;;5004086;28;20258;-75
2023/02/02 11:07:46;;;;;;;13.17;3.50;;;5.60;99.90;;;;;;5002567;28;20222;-75
2023/02/02 11:10:11;;;;;;;15.60;3.53;;;5.50;99.90;;;;;;5001950;28;20247;-75
2023/02/02 11:12:45;;;;;;;10.37;2.77;;;5.40;99.90;;;;;;5002046;28;20608;-75
2023/02/02 11:15:29;;;;;;;9.70;1.83;;;5.40;99.90;;;;;;5002884;28;20215;-75
2023/02/02 11:17:55;;;;;;;8.97;2.10;;;5.30;99.90;;;;;;5001527;28;20549;-75
2023/02/02 11:20:29;;;;;;;8.67;2.23;;;5.20;99.90;;;;;;5000160;28;20206;-75
2023/02/02 11:23:03;;;;;;;7.20;2.20;;;5.00;99.90;;;;;;5000012;28;20767;-75
2023/02/02 11:25:35;;;;;;;7.57;2.83;;;5.00;99.90;;;;;;5002302;28;20428;-75
2023/02/02 11:28:18;;;;;;;13.10;2.87;;;4.90;99.90;;;;;;5002339;28;20828;-76
2023/02/02 11:30:50;;;;;;;9.97;3.33;;;5.00;99.90;;;;;;5003261;28;20191;-75
2023/02/02 11:33:29;;;;;;;11.17;2.70;;;5.10;99.90;;;;;;5002120;28;20226;-75
2023/02/02 11:36:00;;;;;;;16.20;3.37;;;5.20;99.90;;;;;;5001022;28;20188;-75
2023/02/02 11:38:28;;;;;;;6.33;2.73;;;5.20;99.90;;;;;;4999614;28;20230;-75
2023/02/02 11:41:03;;;;;;;10.83;2.50;;;5.40;99.90;;;;;;5001668;28;20192;-75
2023/02/02 11:43:29;;;;;;;11.57;2.87;;;5.50;99.90;;;;;;5000183;28;20569;-75
2023/02/02 11:46:04;;;;;;;13.90;2.53;;;5.50;99.90;;;;;;4931929;28;20779;-75
2023/02/02 11:48:38;;;;;;;9.47;2.53;;;5.50;99.90;;;;;;4923268;28;20543;-75
2023/02/02 11:51:09;;;;;;;9.40;2.93;;;3.80;99.90;;;;;;4985026;28;20551;-75
2023/02/02 11:53:38;;;;;;;16.07;7.63;;;5.60;99.90;;;;;;5001101;28;20644;-75
2023/02/02 11:56:20;;;;;;;12.27;3.13;;;5.70;99.90;;;;;;5000741;28;20689;-74
2023/02/02 11:58:51;;;;;;;12.03;2.60;;;5.80;99.90;;;;;;4998988;28;20204;-75
2023/02/02 12:01:29;;;;;;;10.63;2.40;;;5.90;99.90;;;;;;4999908;28;20205;-75
2023/02/02 12:03:58;;;;;;;9.93;2.30;;;5.80;99.90;;;;;;5000293;28;20469;-75
2023/02/02 12:06:32;;;;;;;7.03;2.20;;;5.90;99.90;;;;;;4959598;28;20180;-75
2023/02/02 12:09:00;;;;;;;10.30;2.70;;;5.90;99.90;;;;;;5000763;28;21011;-75
2023/02/02 12:11:35;;;;;;;8.03;2.40;;;5.90;99.90;;;;;;4999452;28;20265;-75
2023/02/02 12:14:25;;;;;;;11.60;2.67;;;5.90;99.90;;;;;;5000892;28;20190;-75
2023/02/02 12:17:24;;;;;;;15.63;3.50;;;5.90;99.90;;;;;;5000911;28;20184;-75
2023/02/02 12:20:11;;;;;;;9.10;2.30;;;6.00;99.90;;;;;;5000740;28;20204;-75
2023/02/02 12:22:49;;;;;;;11.50;2.83;;;6.20;99.90;;;;;;5001413;28;20175;-75
2023/02/02 12:26:03;;;;;;;9.90;2.37;;;6.30;99.90;;;;;;5001548;28;20182;-75
2023/02/02 12:29:06;;;;;;;9.03;2.60;;;6.40;99.90;;;;;;4971144;28;20220;-75
2023/02/02 12:31:54;;;;;;;12.97;2.90;;;6.40;99.90;;;;;;4972640;28;20791;-75
2023/02/02 12:34:39;;;;;;;8.63;2.80;;;6.50;99.90;;;;;;4997707;28;20222;-75
2023/02/02 12:37:12;;;;;;;8.80;2.50;;;6.50;86.50;;;;;;5021726;28;20281;-77
2023/02/02 12:40:01;;;;;;;11.77;2.63;;;6.50;58.20;;;;;;5001271;28;20215;-75
2023/02/02 12:42:59;;;;;;;10.53;2.00;;;6.50;85.10;;;;;;5014380;28;20268;-75
2023/02/02 12:45:43;;;;;;;11.70;3.40;;;6.60;45.00;;;;;;5000804;28;20175;-75
2023/02/02 12:48:31;;;;;;;11.07;2.63;;;6.80;61.30;;;;;;5000357;28;20286;-75
2023/02/02 12:51:34;;;;;;;10.63;2.47;;;6.70;35.60;;;;;;5000078;28;20180;-75
2023/02/02 12:54:27;;;;;;;11.73;2.47;;;6.70;20.40;;;;;;5015611;28;20661;-75
2023/02/02 12:57:05;;;;;;;11.60;3.43;;;6.60;39.40;;;;;;5005818;28;20186;-75
2023/02/02 12:59:53;;;;;;;8.37;2.43;;;6.80;49.10;;;;;;5005108;28;20285;-75
2023/02/02 13:02:19;;;;;;;11.20;2.53;;;6.70;35.80;;;;;;5006181;28;20187;-75
2023/02/02 13:04:57;;;;;;;9.57;2.43;;;6.60;31.30;;;;;;5002549;28;20184;-75
2023/02/02 13:07:33;;;;;;;9.53;2.43;;;6.50;30.10;;;;;;5019818;28;20275;-75
2023/02/02 13:10:07;;;;;;;10.80;3.43;;;6.40;63.10;;;;;;5004878;28;20211;-75
2023/02/02 13:12:38;;;;;;;9.37;2.70;;;6.40;58.60;;;;;;5005276;28;20753;-75
2023/02/02 13:15:16;;;;;;;12.03;2.33;;;6.30;62.70;;;;;;5005221;28;20179;-75
2023/02/02 13:17:48;;;;;;;10.40;2.90;;;6.30;39.60;;;;;;5003719;28;20429;-75
2023/02/02 13:20:24;;;;;;;11.20;2.47;;;6.20;55.80;;;;;;5020786;28;20207;-75